sensor_id;sensor_type;location;lat;lon;timestamp;P1;durP1;ratioP1;P2;durP2;ratioP2
27802;SDS011;15182;48.174;11.562;2022-10-19T00:01:57;4.88;;;4.55;;
27802;SDS011;15182;48.174;11.562;2022-10-19T00:04:28;6.28;;;4.45;;
27802;SDS011;15182;48.174;11.562;2022-10-19T00:07:00;7.43;;;4.75;;
27802;SDS011;15182;48.174;11.562;2022-10-19T00:09:31;4.55;;;4.25;;
27802;SDS011;15182;48.174;11.562;2022-10-19T00:12:04;4.50;;;4.30;;
27802;SDS011;15182;48.174;11.562;2022-10-19T00:14:35;4.78;;;4.32;;
27802;SDS011;15182;48.174;11.562;2022-10-19T00:17:06;4.90;;;4.50;;
27802;SDS011;15182;48.174;11.562;2022-10-19T00:19:38;4.38;;;4.20;;
27802;SDS011;15182;48.174;11.562;2022-10-19T00:22:09;4.32;;;4.13;;
27802;SDS011;15182;48.174;11.562;2022-10-19T00:24:40;4.40;;;4.15;;
27802;SDS011;15182;48.174;11.562;2022-10-19T00:27:13;4.60;;;4.30;;
27802;SDS011;15182;48.174;11.562;2022-10-19T00:29:45;4.68;;;4.43;;
27802;SDS011;15182;48.174;11.562;2022-10-19T00:32:17;4.50;;;4.25;;
27802;SDS011;15182;48.174;11.562;2022-10-19T00:34:50;5.03;;;4.57;;
27802;SDS011;15182;48.174;11.562;2022-10-19T00:37:21;4.55;;;4.15;;
27802;SDS011;15182;48.174;11.562;2022-10-19T00:39:52;5.30;;;4.88;;
27802;SDS011;15182;48.174;11.562;2022-10-19T00:42:25;4.95;;;4.70;;
27802;SDS011;15182;48.174;11.562;2022-10-19T00:44:58;4.57;;;4.28;;
27802;SDS011;15182;48.174;11.562;2022-10-19T00:47:37;5.65;;;4.70;;
27802;SDS011;15182;48.174;11.562;2022-10-19T00:50:09;4.20;;;4.00;;
27802;SDS011;15182;48.174;11.562;2022-10-19T00:52:42;4.07;;;3.97;;
27802;SDS011;15182;48.174;11.562;2022-10-19T00:55:14;4.50;;;4.07;;
27802;SDS011;15182;48.174;11.562;2022-10-19T00:57:48;3.70;;;3.55;;
27802;SDS011;15182;48.174;11.562;2022-10-19T01:00:19;4.47;;;4.25;;
27802;SDS011;15182;48.174;11.562;2022-10-19T01:02:51;4.68;;;4.40;;
27802;SDS011;15182;48.174;11.562;2022-10-19T01:05:23;4.53;;;3.72;;
27802;SDS011;15182;48.174;11.562;2022-10-19T01:07:55;5.45;;;4.60;;
27802;SDS011;15182;48.174;11.562;2022-10-19T01:10:29;4.97;;;4.75;;
27802;SDS011;15182;48.174;11.562;2022-10-19T01:13:16;4.35;;;4.15;;
27802;SDS011;15182;48.174;11.562;2022-10-19T01:15:56;4.45;;;4.25;;
27802;SDS011;15182;48.174;11.562;2022-10-19T01:18:36;5.13;;;4.30;;
27802;SDS011;15182;48.174;11.562;2022-10-19T01:21:20;4.85;;;4.55;;
27802;SDS011;15182;48.174;11.562;2022-10-19T01:24:00;4.65;;;4.40;;
27802;SDS011;15182;48.174;11.562;2022-10-19T01:27:19;5.32;;;4.93;;
27802;SDS011;15182;48.174;11.562;2022-10-19T01:30:10;6.13;;;4.93;;
27802;SDS011;15182;48.174;11.562;2022-10-19T01:32:57;6.55;;;5.35;;
27802;SDS011;15182;48.174;11.562;2022-10-19T01:36:09;5.55;;;5.13;;
27802;SDS011;15182;48.174;11.562;2022-10-19T01:38:52;5.35;;;5.05;;
27802;SDS011;15182;48.174;11.562;2022-10-19T01:41:29;6.78;;;5.95;;
27802;SDS011;15182;48.174;11.562;2022-10-19T01:44:12;6.57;;;6.07;;
27802;SDS011;15182;48.174;11.562;2022-10-19T01:46:49;6.90;;;6.25;;
27802;SDS011;15182;48.174;11.562;2022-10-19T01:49:27;5.45;;;5.15;;
27802;SDS011;15182;48.174;11.562;2022-10-19T01:52:05;6.22;;;5.68;;
27802;SDS011;15182;48.174;11.562;2022-10-19T01:54:42;6.40;;;5.95;;
27802;SDS011;15182;48.174;11.562;2022-10-19T01:57:18;7.40;;;6.10;;
27802;SDS011;15182;48.174;11.562;2022-10-19T01:59:54;6.80;;;6.30;;
27802;SDS011;15182;48.174;11.562;2022-10-19T02:02:39;6.38;;;5.97;;
27802;SDS011;15182;48.174;11.562;2022-10-19T02:05:15;6.15;;;5.65;;
27802;SDS011;15182;48.174;11.562;2022-10-19T02:07:53;5.60;;;5.22;;
27802;SDS011;15182;48.174;11.562;2022-10-19T02:10:31;7.72;;;6.18;;
27802;SDS011;15182;48.174;11.562;2022-10-19T02:13:05;6.10;;;5.70;;
27802;SDS011;15182;48.174;11.562;2022-10-19T02:15:40;6.57;;;6.13;;
27802;SDS011;15182;48.174;11.562;2022-10-19T02:18:18;8.70;;;6.20;;
27802;SDS011;15182;48.174;11.562;2022-10-19T02:20:56;6.40;;;6.05;;
27802;SDS011;15182;48.174;11.562;2022-10-19T02:23:28;7.03;;;6.50;;
27802;SDS011;15182;48.174;11.562;2022-10-19T02:26:00;6.80;;;6.40;;
27802;SDS011;15182;48.174;11.562;2022-10-19T02:28:32;7.65;;;6.93;;
27802;SDS011;15182;48.174;11.562;2022-10-19T02:31:04;10.13;;;6.22;;
27802;SDS011;15182;48.174;11.562;2022-10-19T02:33:38;8.85;;;6.70;;
27802;SDS011;15182;48.174;11.562;2022-10-19T02:36:09;6.50;;;6.10;;
27802;SDS011;15182;48.174;11.562;2022-10-19T02:38:41;7.07;;;6.47;;
27802;SDS011;15182;48.174;11.562;2022-10-19T02:41:13;7.22;;;6.78;;
27802;SDS011;15182;48.174;11.562;2022-10-19T02:43:48;7.50;;;6.90;;
27802;SDS011;15182;48.174;11.562;2022-10-19T02:46:26;7.35;;;6.82;;
27802;SDS011;15182;48.174;11.562;2022-10-19T02:49:02;7.05;;;6.55;;
27802;SDS011;15182;48.174;11.562;2022-10-19T02:51:36;7.45;;;6.95;;
27802;SDS011;15182;48.174;11.562;2022-10-19T02:54:22;7.65;;;7.05;;
27802;SDS011;15182;48.174;11.562;2022-10-19T02:56:54;7.90;;;7.30;;
27802;SDS011;15182;48.174;11.562;2022-10-19T02:59:25;7.22;;;6.63;;
27802;SDS011;15182;48.174;11.562;2022-10-19T03:01:57;7.18;;;6.47;;
27802;SDS011;15182;48.174;11.562;2022-10-19T03:04:29;8.20;;;7.43;;
27802;SDS011;15182;48.174;11.562;2022-10-19T03:07:01;7.53;;;6.80;;
27802;SDS011;15182;48.174;11.562;2022-10-19T03:09:32;7.43;;;6.72;;
27802;SDS011;15182;48.174;11.562;2022-10-19T03:12:04;7.47;;;6.88;;
27802;SDS011;15182;48.174;11.562;2022-10-19T03:14:36;7.88;;;7.30;;
27802;SDS011;15182;48.174;11.562;2022-10-19T03:17:07;7.75;;;7.05;;
27802;SDS011;15182;48.174;11.562;2022-10-19T03:19:39;9.82;;;6.53;;
27802;SDS011;15182;48.174;11.562;2022-10-19T03:22:11;7.65;;;7.05;;
27802;SDS011;15182;48.174;11.562;2022-10-19T03:24:42;7.07;;;6.57;;
27802;SDS011;15182;48.174;11.562;2022-10-19T03:27:14;7.45;;;6.75;;
27802;SDS011;15182;48.174;11.562;2022-10-19T03:29:45;7.00;;;6.50;;
27802;SDS011;15182;48.174;11.562;2022-10-19T03:32:16;7.57;;;6.95;;
27802;SDS011;15182;48.174;11.562;2022-10-19T03:34:49;7.57;;;6.97;;
27802;SDS011;15182;48.174;11.562;2022-10-19T03:37:21;7.00;;;6.57;;
27802;SDS011;15182;48.174;11.562;2022-10-19T03:39:52;7.63;;;6.57;;
27802;SDS011;15182;48.174;11.562;2022-10-19T03:42:23;6.80;;;6.40;;
27802;SDS011;15182;48.174;11.562;2022-10-19T03:44:54;6.68;;;6.28;;
27802;SDS011;15182;48.174;11.562;2022-10-19T03:47:26;7.60;;;7.00;;
27802;SDS011;15182;48.174;11.562;2022-10-19T03:49:59;7.85;;;7.13;;
27802;SDS011;15182;48.174;11.562;2022-10-19T03:52:31;6.97;;;6.55;;
27802;SDS011;15182;48.174;11.562;2022-10-19T03:55:02;7.00;;;6.50;;
27802;SDS011;15182;48.174;11.562;2022-10-19T03:57:35;9.07;;;7.00;;
27802;SDS011;15182;48.174;11.562;2022-10-19T04:00:07;7.05;;;6.47;;
27802;SDS011;15182;48.174;11.562;2022-10-19T04:02:40;7.53;;;6.90;;
27802;SDS011;15182;48.174;11.562;2022-10-19T04:05:13;9.27;;;6.80;;
27802;SDS011;15182;48.174;11.562;2022-10-19T04:07:52;7.05;;;6.65;;
27802;SDS011;15182;48.174;11.562;2022-10-19T04:10:23;6.57;;;6.07;;
27802;SDS011;15182;48.174;11.562;2022-10-19T04:12:56;8.20;;;7.50;;
27802;SDS011;15182;48.174;11.562;2022-10-19T04:15:27;7.72;;;6.85;;
27802;SDS011;15182;48.174;11.562;2022-10-19T04:17:58;7.05;;;6.55;;
27802;SDS011;15182;48.174;11.562;2022-10-19T04:20:31;6.90;;;6.50;;
27802;SDS011;15182;48.174;11.562;2022-10-19T04:23:06;7.78;;;7.20;;
27802;SDS011;15182;48.174;11.562;2022-10-19T04:25:38;7.78;;;7.18;;
27802;SDS011;15182;48.174;11.562;2022-10-19T04:28:09;7.30;;;6.80;;
27802;SDS011;15182;48.174;11.562;2022-10-19T04:30:40;7.13;;;6.53;;
27802;SDS011;15182;48.174;11.562;2022-10-19T04:33:11;7.68;;;7.07;;
27802;SDS011;15182;48.174;11.562;2022-10-19T04:35:44;8.02;;;7.43;;
27802;SDS011;15182;48.174;11.562;2022-10-19T04:38:15;7.88;;;7.38;;
27802;SDS011;15182;48.174;11.562;2022-10-19T04:40:46;7.80;;;6.70;;
27802;SDS011;15182;48.174;11.562;2022-10-19T04:43:18;7.25;;;6.72;;
27802;SDS011;15182;48.174;11.562;2022-10-19T04:45:49;9.98;;;7.80;;
27802;SDS011;15182;48.174;11.562;2022-10-19T04:48:20;8.55;;;7.82;;
27802;SDS011;15182;48.174;11.562;2022-10-19T04:50:54;7.43;;;6.85;;
27802;SDS011;15182;48.174;11.562;2022-10-19T04:53:25;9.55;;;7.47;;
27802;SDS011;15182;48.174;11.562;2022-10-19T04:55:56;8.00;;;7.32;;
27802;SDS011;15182;48.174;11.562;2022-10-19T04:58:33;8.23;;;7.53;;
27802;SDS011;15182;48.174;11.562;2022-10-19T05:01:07;7.82;;;7.13;;
27802;SDS011;15182;48.174;11.562;2022-10-19T05:03:40;7.78;;;7.18;;
27802;SDS011;15182;48.174;11.562;2022-10-19T05:06:13;7.43;;;6.90;;
27802;SDS011;15182;48.174;11.562;2022-10-19T05:08:46;6.90;;;6.43;;
27802;SDS011;15182;48.174;11.562;2022-10-19T05:11:18;7.18;;;6.45;;
27802;SDS011;15182;48.174;11.562;2022-10-19T05:13:50;6.97;;;6.47;;
27802;SDS011;15182;48.174;11.562;2022-10-19T05:16:21;7.72;;;7.18;;
27802;SDS011;15182;48.174;11.562;2022-10-19T05:18:54;7.70;;;7.00;;
27802;SDS011;15182;48.174;11.562;2022-10-19T05:21:27;7.15;;;6.47;;
27802;SDS011;15182;48.174;11.562;2022-10-19T05:23:59;7.80;;;7.15;;
27802;SDS011;15182;48.174;11.562;2022-10-19T05:26:30;8.02;;;7.43;;
27802;SDS011;15182;48.174;11.562;2022-10-19T05:29:01;7.20;;;6.70;;
27802;SDS011;15182;48.174;11.562;2022-10-19T05:31:33;7.45;;;6.85;;
27802;SDS011;15182;48.174;11.562;2022-10-19T05:34:04;7.35;;;6.88;;
27802;SDS011;15182;48.174;11.562;2022-10-19T05:36:37;8.90;;;8.10;;
27802;SDS011;15182;48.174;11.562;2022-10-19T05:39:11;8.10;;;7.25;;
27802;SDS011;15182;48.174;11.562;2022-10-19T05:41:44;8.43;;;7.75;;
27802;SDS011;15182;48.174;11.562;2022-10-19T05:44:16;8.93;;;7.68;;
27802;SDS011;15182;48.174;11.562;2022-10-19T05:46:49;8.20;;;7.40;;
27802;SDS011;15182;48.174;11.562;2022-10-19T05:49:21;7.30;;;6.82;;
27802;SDS011;15182;48.174;11.562;2022-10-19T05:51:53;9.30;;;7.05;;
27802;SDS011;15182;48.174;11.562;2022-10-19T05:54:25;7.50;;;6.95;;
27802;SDS011;15182;48.174;11.562;2022-10-19T05:56:56;7.95;;;7.15;;
27802;SDS011;15182;48.174;11.562;2022-10-19T05:59:28;7.00;;;6.57;;
27802;SDS011;15182;48.174;11.562;2022-10-19T06:01:59;9.63;;;7.00;;
27802;SDS011;15182;48.174;11.562;2022-10-19T06:04:30;7.75;;;7.07;;
27802;SDS011;15182;48.174;11.562;2022-10-19T06:07:03;8.20;;;7.50;;
27802;SDS011;15182;48.174;11.562;2022-10-19T06:09:34;7.45;;;6.93;;
27802;SDS011;15182;48.174;11.562;2022-10-19T06:12:06;7.78;;;7.05;;
27802;SDS011;15182;48.174;11.562;2022-10-19T06:14:37;8.27;;;6.95;;
27802;SDS011;15182;48.174;11.562;2022-10-19T06:17:09;8.27;;;7.57;;
27802;SDS011;15182;48.174;11.562;2022-10-19T06:19:40;7.68;;;6.43;;
27802;SDS011;15182;48.174;11.562;2022-10-19T06:22:13;7.88;;;6.97;;
27802;SDS011;15182;48.174;11.562;2022-10-19T06:24:45;8.27;;;7.40;;
27802;SDS011;15182;48.174;11.562;2022-10-19T06:27:16;13.23;;;7.93;;
27802;SDS011;15182;48.174;11.562;2022-10-19T06:29:47;12.70;;;7.88;;
27802;SDS011;15182;48.174;11.562;2022-10-19T06:32:18;8.65;;;7.78;;
27802;SDS011;15182;48.174;11.562;2022-10-19T06:34:50;10.43;;;7.47;;
27802;SDS011;15182;48.174;11.562;2022-10-19T06:37:22;9.20;;;8.40;;
27802;SDS011;15182;48.174;11.562;2022-10-19T06:39:54;8.30;;;7.45;;
27802;SDS011;15182;48.174;11.562;2022-10-19T06:42:25;8.35;;;7.57;;
27802;SDS011;15182;48.174;11.562;2022-10-19T06:44:56;8.85;;;7.95;;
27802;SDS011;15182;48.174;11.562;2022-10-19T06:47:27;9.02;;;7.93;;
27802;SDS011;15182;48.174;11.562;2022-10-19T06:49:58;9.27;;;7.63;;
27802;SDS011;15182;48.174;11.562;2022-10-19T06:52:32;8.70;;;8.00;;
27802;SDS011;15182;48.174;11.562;2022-10-19T06:55:05;8.80;;;7.80;;
27802;SDS011;15182;48.174;11.562;2022-10-19T06:57:38;9.18;;;8.32;;
27802;SDS011;15182;48.174;11.562;2022-10-19T07:00:09;8.88;;;8.05;;
27802;SDS011;15182;48.174;11.562;2022-10-19T07:02:42;10.23;;;8.95;;
27802;SDS011;15182;48.174;11.562;2022-10-19T07:05:13;9.43;;;8.52;;
27802;SDS011;15182;48.174;11.562;2022-10-19T07:07:46;9.48;;;8.52;;
27802;SDS011;15182;48.174;11.562;2022-10-19T07:10:17;9.27;;;8.00;;
27802;SDS011;15182;48.174;11.562;2022-10-19T07:12:48;9.90;;;8.95;;
27802;SDS011;15182;48.174;11.562;2022-10-19T07:15:19;9.13;;;8.23;;
27802;SDS011;15182;48.174;11.562;2022-10-19T07:17:51;9.38;;;8.60;;
27802;SDS011;15182;48.174;11.562;2022-10-19T07:20:23;10.15;;;8.95;;
27802;SDS011;15182;48.174;11.562;2022-10-19T07:22:55;9.82;;;8.88;;
27802;SDS011;15182;48.174;11.562;2022-10-19T07:25:27;11.13;;;8.95;;
27802;SDS011;15182;48.174;11.562;2022-10-19T07:27:59;11.73;;;8.77;;
27802;SDS011;15182;48.174;11.562;2022-10-19T07:30:30;9.35;;;8.27;;
27802;SDS011;15182;48.174;11.562;2022-10-19T07:33:01;12.25;;;8.68;;
27802;SDS011;15182;48.174;11.562;2022-10-19T07:35:35;12.00;;;9.55;;
27802;SDS011;15182;48.174;11.562;2022-10-19T07:38:07;10.40;;;9.38;;
27802;SDS011;15182;48.174;11.562;2022-10-19T07:40:41;10.15;;;8.65;;
27802;SDS011;15182;48.174;11.562;2022-10-19T07:43:13;10.77;;;9.68;;
27802;SDS011;15182;48.174;11.562;2022-10-19T07:45:44;11.15;;;9.73;;
27802;SDS011;15182;48.174;11.562;2022-10-19T07:48:15;11.07;;;9.88;;
27802;SDS011;15182;48.174;11.562;2022-10-19T07:50:46;16.13;;;9.25;;
27802;SDS011;15182;48.174;11.562;2022-10-19T07:53:19;16.15;;;11.00;;
27802;SDS011;15182;48.174;11.562;2022-10-19T07:55:50;15.43;;;10.95;;
27802;SDS011;15182;48.174;11.562;2022-10-19T07:58:21;11.90;;;9.93;;
27802;SDS011;15182;48.174;11.562;2022-10-19T08:00:57;11.60;;;10.32;;
27802;SDS011;15182;48.174;11.562;2022-10-19T08:03:30;13.07;;;10.10;;
27802;SDS011;15182;48.174;11.562;2022-10-19T08:06:03;14.65;;;10.80;;
27802;SDS011;15182;48.174;11.562;2022-10-19T08:08:39;16.02;;;10.60;;
27802;SDS011;15182;48.174;11.562;2022-10-19T08:11:12;13.30;;;11.20;;
27802;SDS011;15182;48.174;11.562;2022-10-19T08:13:48;12.20;;;9.68;;
27802;SDS011;15182;48.174;11.562;2022-10-19T08:16:23;15.95;;;10.68;;
27802;SDS011;15182;48.174;11.562;2022-10-19T08:18:58;14.32;;;10.88;;
27802;SDS011;15182;48.174;11.562;2022-10-19T08:21:32;15.43;;;11.43;;
27802;SDS011;15182;48.174;11.562;2022-10-19T08:24:08;11.38;;;10.25;;
27802;SDS011;15182;48.174;11.562;2022-10-19T08:26:44;15.80;;;12.02;;
27802;SDS011;15182;48.174;11.562;2022-10-19T08:29:17;13.93;;;11.02;;
27802;SDS011;15182;48.174;11.562;2022-10-19T08:31:50;15.80;;;10.60;;
27802;SDS011;15182;48.174;11.562;2022-10-19T08:34:21;17.52;;;11.70;;
27802;SDS011;15182;48.174;11.562;2022-10-19T08:36:53;14.57;;;10.15;;
27802;SDS011;15182;48.174;11.562;2022-10-19T08:39:28;14.65;;;10.55;;
27802;SDS011;15182;48.174;11.562;2022-10-19T08:42:00;13.57;;;10.70;;
27802;SDS011;15182;48.174;11.562;2022-10-19T08:44:40;13.55;;;10.52;;
27802;SDS011;15182;48.174;11.562;2022-10-19T08:47:57;14.85;;;10.35;;
27802;SDS011;15182;48.174;11.562;2022-10-19T08:50:31;12.98;;;9.55;;
27802;SDS011;15182;48.174;11.562;2022-10-19T08:53:06;12.90;;;10.68;;
27802;SDS011;15182;48.174;11.562;2022-10-19T08:55:53;12.68;;;10.23;;
27802;SDS011;15182;48.174;11.562;2022-10-19T08:58:38;12.73;;;10.23;;
27802;SDS011;15182;48.174;11.562;2022-10-19T09:01:25;13.30;;;10.30;;
27802;SDS011;15182;48.174;11.562;2022-10-19T09:04:06;15.13;;;10.10;;
27802;SDS011;15182;48.174;11.562;2022-10-19T09:06:44;15.57;;;11.10;;
27802;SDS011;15182;48.174;11.562;2022-10-19T09:09:26;18.40;;;12.10;;
27802;SDS011;15182;48.174;11.562;2022-10-19T09:12:03;14.63;;;11.88;;
27802;SDS011;15182;48.174;11.562;2022-10-19T09:14:44;13.32;;;10.63;;
27802;SDS011;15182;48.174;11.562;2022-10-19T09:17:21;25.33;;;11.07;;
27802;SDS011;15182;48.174;11.562;2022-10-19T09:19:56;17.08;;;10.63;;
27802;SDS011;15182;48.174;11.562;2022-10-19T09:22:35;15.85;;;9.40;;
27802;SDS011;15182;48.174;11.562;2022-10-19T09:25:10;14.20;;;10.55;;
27802;SDS011;15182;48.174;11.562;2022-10-19T09:27:51;12.65;;;9.75;;
27802;SDS011;15182;48.174;11.562;2022-10-19T09:30:32;12.23;;;9.50;;
27802;SDS011;15182;48.174;11.562;2022-10-19T09:33:10;15.80;;;10.75;;
27802;SDS011;15182;48.174;11.562;2022-10-19T09:35:49;13.85;;;10.73;;
27802;SDS011;15182;48.174;11.562;2022-10-19T09:38:22;14.45;;;10.07;;
27802;SDS011;15182;48.174;11.562;2022-10-19T09:40:58;16.80;;;10.82;;
27802;SDS011;15182;48.174;11.562;2022-10-19T09:43:44;12.40;;;10.07;;
27802;SDS011;15182;48.174;11.562;2022-10-19T09:46:25;16.23;;;10.10;;
27802;SDS011;15182;48.174;11.562;2022-10-19T09:49:02;14.38;;;9.90;;
27802;SDS011;15182;48.174;11.562;2022-10-19T09:51:38;11.80;;;9.43;;
27802;SDS011;15182;48.174;11.562;2022-10-19T09:54:22;15.40;;;9.82;;
27802;SDS011;15182;48.174;11.562;2022-10-19T09:57:00;12.23;;;8.77;;
27802;SDS011;15182;48.174;11.562;2022-10-19T09:59:35;11.98;;;9.10;;
27802;SDS011;15182;48.174;11.562;2022-10-19T10:02:13;9.60;;;8.65;;
27802;SDS011;15182;48.174;11.562;2022-10-19T10:04:48;9.48;;;8.48;;
27802;SDS011;15182;48.174;11.562;2022-10-19T10:07:33;9.55;;;8.50;;
27802;SDS011;15182;48.174;11.562;2022-10-19T10:10:20;9.25;;;8.25;;
27802;SDS011;15182;48.174;11.562;2022-10-19T10:12:57;10.95;;;8.13;;
27802;SDS011;15182;48.174;11.562;2022-10-19T10:15:34;8.15;;;7.40;;
27802;SDS011;15182;48.174;11.562;2022-10-19T10:18:14;9.52;;;8.23;;
27802;SDS011;15182;48.174;11.562;2022-10-19T10:21:00;8.77;;;7.60;;
27802;SDS011;15182;48.174;11.562;2022-10-19T10:23:39;11.88;;;7.95;;
27802;SDS011;15182;48.174;11.562;2022-10-19T10:26:15;9.50;;;7.45;;
27802;SDS011;15182;48.174;11.562;2022-10-19T10:28:48;8.27;;;7.57;;
27802;SDS011;15182;48.174;11.562;2022-10-19T10:31:22;8.40;;;7.57;;
27802;SDS011;15182;48.174;11.562;2022-10-19T10:33:57;8.77;;;7.93;;
27802;SDS011;15182;48.174;11.562;2022-10-19T10:36:30;9.65;;;8.30;;
27802;SDS011;15182;48.174;11.562;2022-10-19T10:39:04;8.73;;;7.53;;
27802;SDS011;15182;48.174;11.562;2022-10-19T10:41:42;7.93;;;7.18;;
27802;SDS011;15182;48.174;11.562;2022-10-19T10:44:18;7.65;;;7.03;;
27802;SDS011;15182;48.174;11.562;2022-10-19T10:46:56;8.07;;;7.40;;
27802;SDS011;15182;48.174;11.562;2022-10-19T10:49:32;10.93;;;8.95;;
27802;SDS011;15182;48.174;11.562;2022-10-19T10:52:10;11.73;;;10.10;;
27802;SDS011;15182;48.174;11.562;2022-10-19T10:54:57;9.10;;;8.30;;
27802;SDS011;15182;48.174;11.562;2022-10-19T10:57:31;8.20;;;7.50;;
27802;SDS011;15182;48.174;11.562;2022-10-19T11:00:10;8.35;;;7.63;;
27802;SDS011;15182;48.174;11.562;2022-10-19T11:02:47;8.60;;;7.55;;
27802;SDS011;15182;48.174;11.562;2022-10-19T11:05:24;10.57;;;7.82;;
27802;SDS011;15182;48.174;11.562;2022-10-19T11:08:00;9.48;;;7.38;;
27802;SDS011;15182;48.174;11.562;2022-10-19T11:10:48;9.07;;;7.00;;
27802;SDS011;15182;48.174;11.562;2022-10-19T11:13:26;8.00;;;6.97;;
27802;SDS011;15182;48.174;11.562;2022-10-19T11:16:03;7.22;;;6.70;;
27802;SDS011;15182;48.174;11.562;2022-10-19T11:18:43;6.85;;;6.18;;
27802;SDS011;15182;48.174;11.562;2022-10-19T11:21:22;6.90;;;6.38;;
27802;SDS011;15182;48.174;11.562;2022-10-19T11:24:04;6.22;;;5.88;;
27802;SDS011;15182;48.174;11.562;2022-10-19T11:26:49;6.07;;;5.70;;
27802;SDS011;15182;48.174;11.562;2022-10-19T11:29:32;5.57;;;5.25;;
27802;SDS011;15182;48.174;11.562;2022-10-19T11:32:19;4.68;;;4.55;;
27802;SDS011;15182;48.174;11.562;2022-10-19T11:35:24;4.60;;;4.40;;
27802;SDS011;15182;48.174;11.562;2022-10-19T11:38:16;4.43;;;4.30;;
27802;SDS011;15182;48.174;11.562;2022-10-19T11:41:12;4.00;;;3.88;;
27802;SDS011;15182;48.174;11.562;2022-10-19T11:46:53;4.20;;;4.00;;
27802;SDS011;15182;48.174;11.562;2022-10-19T11:49:40;3.90;;;3.80;;
27802;SDS011;15182;48.174;11.562;2022-10-19T11:52:23;7.88;;;4.50;;
27802;SDS011;15182;48.174;11.562;2022-10-19T11:55:02;4.80;;;4.60;;
27802;SDS011;15182;48.174;11.562;2022-10-19T11:57:43;3.92;;;3.72;;
27802;SDS011;15182;48.174;11.562;2022-10-19T12:00:23;4.97;;;4.55;;
27802;SDS011;15182;48.174;11.562;2022-10-19T12:03:05;3.67;;;3.58;;
27802;SDS011;15182;48.174;11.562;2022-10-19T12:06:07;5.15;;;4.72;;
27802;SDS011;15182;48.174;11.562;2022-10-19T12:11:45;3.92;;;3.72;;
27802;SDS011;15182;48.174;11.562;2022-10-19T12:14:26;4.60;;;4.20;;
27802;SDS011;15182;48.174;11.562;2022-10-19T12:17:04;4.30;;;4.10;;
27802;SDS011;15182;48.174;11.562;2022-10-19T12:19:43;4.35;;;3.67;;
27802;SDS011;15182;48.174;11.562;2022-10-19T12:22:20;3.88;;;3.78;;
27802;SDS011;15182;48.174;11.562;2022-10-19T12:24:56;3.85;;;3.75;;
27802;SDS011;15182;48.174;11.562;2022-10-19T12:27:30;3.72;;;3.42;;
27802;SDS011;15182;48.174;11.562;2022-10-19T12:30:05;3.60;;;3.50;;
27802;SDS011;15182;48.174;11.562;2022-10-19T12:32:42;4.35;;;4.15;;
27802;SDS011;15182;48.174;11.562;2022-10-19T12:35:23;3.78;;;3.67;;
27802;SDS011;15182;48.174;11.562;2022-10-19T12:38:14;3.75;;;3.65;;
27802;SDS011;15182;48.174;11.562;2022-10-19T12:40:52;3.78;;;3.67;;
27802;SDS011;15182;48.174;11.562;2022-10-19T12:43:31;4.50;;;4.20;;
27802;SDS011;15182;48.174;11.562;2022-10-19T12:46:12;4.30;;;3.95;;
27802;SDS011;15182;48.174;11.562;2022-10-19T12:48:58;3.53;;;3.42;;
27802;SDS011;15182;48.174;11.562;2022-10-19T12:52:05;3.38;;;3.28;;
27802;SDS011;15182;48.174;11.562;2022-10-19T12:54:37;3.75;;;3.65;;
27802;SDS011;15182;48.174;11.562;2022-10-19T12:57:22;3.60;;;3.47;;
27802;SDS011;15182;48.174;11.562;2022-10-19T12:59:56;3.63;;;3.53;;
27802;SDS011;15182;48.174;11.562;2022-10-19T13:02:32;4.18;;;4.07;;
27802;SDS011;15182;48.174;11.562;2022-10-19T13:05:07;4.25;;;4.13;;
27802;SDS011;15182;48.174;11.562;2022-10-19T13:07:46;4.82;;;4.53;;
27802;SDS011;15182;48.174;11.562;2022-10-19T13:10:20;4.68;;;4.43;;
27802;SDS011;15182;48.174;11.562;2022-10-19T13:12:55;5.15;;;4.90;;
27802;SDS011;15182;48.174;11.562;2022-10-19T13:21:53;5.82;;;5.53;;
27802;SDS011;15182;48.174;11.562;2022-10-19T13:24:43;7.00;;;6.40;;
27802;SDS011;15182;48.174;11.562;2022-10-19T13:27:52;6.63;;;6.13;;
27802;SDS011;15182;48.174;11.562;2022-10-19T13:33:50;6.55;;;5.95;;
27802;SDS011;15182;48.174;11.562;2022-10-19T13:36:20;5.95;;;5.55;;
27802;SDS011;15182;48.174;11.562;2022-10-19T13:39:04;5.90;;;5.53;;
27802;SDS011;15182;48.174;11.562;2022-10-19T13:41:52;6.20;;;5.60;;
27802;SDS011;15182;48.174;11.562;2022-10-19T13:44:24;5.43;;;5.13;;
27802;SDS011;15182;48.174;11.562;2022-10-19T13:47:06;5.82;;;5.40;;
27802;SDS011;15182;48.174;11.562;2022-10-19T13:50:09;5.68;;;5.20;;
27802;SDS011;15182;48.174;11.562;2022-10-19T13:53:02;5.18;;;4.78;;
27802;SDS011;15182;48.174;11.562;2022-10-19T13:55:50;4.78;;;4.57;;
27802;SDS011;15182;48.174;11.562;2022-10-19T14:02:17;5.20;;;4.60;;
27802;SDS011;15182;48.174;11.562;2022-10-19T14:05:17;5.38;;;5.03;;
27802;SDS011;15182;48.174;11.562;2022-10-19T14:08:16;6.07;;;5.70;;
27802;SDS011;15182;48.174;11.562;2022-10-19T14:10:58;5.25;;;4.95;;
27802;SDS011;15182;48.174;11.562;2022-10-19T14:13:32;5.38;;;5.18;;
27802;SDS011;15182;48.174;11.562;2022-10-19T14:16:03;5.55;;;5.25;;
27802;SDS011;15182;48.174;11.562;2022-10-19T14:18:43;5.80;;;5.30;;
27802;SDS011;15182;48.174;11.562;2022-10-19T14:21:28;5.22;;;4.90;;
27802;SDS011;15182;48.174;11.562;2022-10-19T14:24:01;4.72;;;4.53;;
27802;SDS011;15182;48.174;11.562;2022-10-19T14:26:47;4.88;;;4.68;;
27802;SDS011;15182;48.174;11.562;2022-10-19T14:29:20;4.85;;;4.65;;
27802;SDS011;15182;48.174;11.562;2022-10-19T14:31:52;5.43;;;5.13;;
27802;SDS011;15182;48.174;11.562;2022-10-19T14:34:25;6.15;;;5.75;;
27802;SDS011;15182;48.174;11.562;2022-10-19T14:36:56;8.18;;;5.13;;
27802;SDS011;15182;48.174;11.562;2022-10-19T14:39:29;5.75;;;5.35;;
27802;SDS011;15182;48.174;11.562;2022-10-19T14:42:03;5.13;;;4.85;;
27802;SDS011;15182;48.174;11.562;2022-10-19T14:44:38;10.35;;;5.45;;
27802;SDS011;15182;48.174;11.562;2022-10-19T14:47:19;4.95;;;4.75;;
27802;SDS011;15182;48.174;11.562;2022-10-19T14:49:53;5.38;;;4.95;;
27802;SDS011;15182;48.174;11.562;2022-10-19T14:52:27;5.32;;;4.90;;
27802;SDS011;15182;48.174;11.562;2022-10-19T14:55:07;5.45;;;5.00;;
27802;SDS011;15182;48.174;11.562;2022-10-19T14:57:43;5.10;;;4.90;;
27802;SDS011;15182;48.174;11.562;2022-10-19T15:00:20;4.75;;;4.53;;
27802;SDS011;15182;48.174;11.562;2022-10-19T15:02:54;4.00;;;3.75;;
27802;SDS011;15182;48.174;11.562;2022-10-19T15:05:31;4.65;;;4.45;;
27802;SDS011;15182;48.174;11.562;2022-10-19T15:08:07;4.22;;;4.07;;
27802;SDS011;15182;48.174;11.562;2022-10-19T15:10:57;4.97;;;4.53;;
27802;SDS011;15182;48.174;11.562;2022-10-19T15:13:30;4.38;;;4.18;;
27802;SDS011;15182;48.174;11.562;2022-10-19T15:19:01;3.70;;;3.60;;
27802;SDS011;15182;48.174;11.562;2022-10-19T15:21:40;3.90;;;3.70;;
27802;SDS011;15182;48.174;11.562;2022-10-19T15:24:20;3.67;;;3.58;;
27802;SDS011;15182;48.174;11.562;2022-10-19T15:26:54;3.58;;;3.47;;
27802;SDS011;15182;48.174;11.562;2022-10-19T15:29:34;3.25;;;3.22;;
27802;SDS011;15182;48.174;11.562;2022-10-19T15:32:12;3.17;;;3.17;;
27802;SDS011;15182;48.174;11.562;2022-10-19T15:34:41;3.65;;;3.55;;
27802;SDS011;15182;48.174;11.562;2022-10-19T15:37:17;4.82;;;3.50;;
27802;SDS011;15182;48.174;11.562;2022-10-19T15:39:50;3.45;;;3.35;;
27802;SDS011;15182;48.174;11.562;2022-10-19T15:42:30;3.78;;;3.63;;
27802;SDS011;15182;48.174;11.562;2022-10-19T15:48:15;3.92;;;3.83;;
27802;SDS011;15182;48.174;11.562;2022-10-19T15:50:54;4.80;;;3.28;;